createdAt,value
2022-07-29T00:01:41.429Z,5.20
2022-07-29T00:04:09.703Z,5.93
2022-07-29T00:06:38.252Z,4.10
2022-07-29T00:09:06.430Z,5.10
2022-07-29T00:11:34.941Z,4.00
2022-07-29T00:14:03.278Z,3.90
2022-07-29T00:16:31.523Z,3.50
2022-07-29T00:19:02.398Z,3.43
2022-07-29T00:21:31.289Z,3.77
2022-07-29T00:23:59.571Z,4.03
2022-07-29T00:26:32.512Z,4.40
2022-07-29T00:29:31.978Z,3.50
2022-07-29T00:31:49.536Z,4.27
2022-07-29T00:34:36.935Z,4.10
2022-07-29T00:37:05.330Z,3.33
2022-07-29T00:39:36.207Z,3.93
2022-07-29T00:42:05.072Z,3.70
2022-07-29T00:44:37.869Z,3.50
2022-07-29T00:47:06.523Z,3.90
2022-07-29T00:49:36.788Z,4.17
2022-07-29T00:52:05.465Z,4.30
2022-07-29T00:54:34.825Z,4.17
2022-07-29T00:57:03.829Z,3.97
2022-07-29T00:59:35.581Z,3.63
2022-07-29T01:02:04.547Z,3.47
2022-07-29T01:04:34.385Z,3.87
2022-07-29T01:07:04.782Z,3.97
2022-07-29T01:09:37.273Z,3.60
2022-07-29T01:12:18.898Z,3.90
2022-07-29T01:14:48.735Z,4.50
2022-07-29T01:17:26.287Z,3.57
2022-07-29T01:20:03.930Z,3.77
2022-07-29T01:22:49.092Z,3.73
2022-07-29T01:25:42.712Z,3.93
2022-07-29T01:28:40.037Z,3.73
2022-07-29T01:31:22.813Z,3.83
2022-07-29T01:34:00.381Z,3.80
2022-07-29T01:36:34.594Z,4.00
2022-07-29T01:39:09.644Z,3.80
2022-07-29T01:41:41.160Z,3.30
2022-07-29T01:44:17.349Z,4.10
2022-07-29T01:46:54.731Z,3.60
2022-07-29T01:49:26.781Z,4.07
2022-07-29T01:52:00.340Z,3.90
2022-07-29T01:54:34.383Z,4.50
2022-07-29T01:57:04.050Z,4.50
2022-07-29T01:59:33.578Z,3.80
2022-07-29T02:02:06.939Z,3.60
2022-07-29T02:04:37.851Z,4.47
2022-07-29T02:07:09.056Z,3.73
2022-07-29T02:09:39.997Z,4.20
2022-07-29T02:12:11.960Z,4.53
2022-07-29T02:14:44.739Z,4.23
2022-07-29T02:17:16.337Z,4.17
2022-07-29T02:19:45.393Z,3.80
2022-07-29T02:22:14.757Z,4.20
2022-07-29T02:24:44.124Z,4.20
2022-07-29T02:27:14.265Z,3.63
2022-07-29T02:29:42.721Z,3.90
2022-07-29T02:32:13.456Z,4.03
2022-07-29T02:34:43.756Z,3.93
2022-07-29T02:37:13.535Z,3.60
2022-07-29T02:39:44.053Z,4.20
2022-07-29T02:42:15.495Z,4.60
2022-07-29T02:44:44.707Z,4.23
2022-07-29T02:47:20.074Z,4.30
2022-07-29T02:49:56.026Z,4.83
2022-07-29T02:52:28.725Z,4.43
2022-07-29T02:55:00.445Z,4.23
2022-07-29T02:57:35.937Z,4.27
2022-07-29T03:00:25.774Z,4.63
2022-07-29T03:02:58.138Z,4.30
2022-07-29T03:05:27.747Z,4.27
2022-07-29T03:08:02.390Z,4.53
2022-07-29T03:10:31.604Z,3.70
2022-07-29T03:13:00.773Z,4.20
2022-07-29T03:15:29.882Z,4.27
2022-07-29T03:18:00.544Z,3.90
2022-07-29T03:20:29.124Z,4.00
2022-07-29T03:22:57.531Z,4.60
2022-07-29T03:25:25.949Z,5.10
2022-07-29T03:27:54.564Z,3.50
2022-07-29T03:30:22.967Z,3.77
2022-07-29T03:32:52.707Z,3.60
2022-07-29T03:35:23.802Z,4.60
2022-07-29T03:37:51.970Z,3.90
2022-07-29T03:40:24.730Z,3.93
2022-07-29T03:42:56.254Z,3.90
2022-07-29T03:45:25.925Z,4.27
2022-07-29T03:48:01.485Z,4.10
2022-07-29T03:50:32.179Z,4.40
2022-07-29T03:53:01.816Z,4.30
2022-07-29T03:55:34.434Z,4.20
2022-07-29T03:58:04.155Z,3.83
2022-07-29T04:00:34.432Z,4.07
2022-07-29T04:03:03.276Z,3.73
2022-07-29T04:05:33.037Z,3.80
2022-07-29T04:08:01.321Z,4.13
2022-07-29T04:10:32.016Z,3.97
2022-07-29T04:13:02.684Z,3.73
2022-07-29T04:15:31.893Z,3.77
2022-07-29T04:18:00.743Z,4.20
2022-07-29T04:20:29.342Z,4.30
2022-07-29T04:22:59.024Z,4.60
2022-07-29T04:25:27.639Z,4.20
2022-07-29T04:28:04.837Z,4.30
2022-07-29T04:30:34.400Z,4.30
2022-07-29T04:33:04.568Z,4.13
2022-07-29T04:35:36.704Z,4.07
2022-07-29T04:38:15.558Z,4.67
2022-07-29T04:40:45.447Z,4.27
2022-07-29T04:43:15.958Z,5.33
2022-07-29T04:45:44.293Z,5.30
2022-07-29T04:48:12.603Z,3.70
2022-07-29T04:50:41.540Z,3.57
2022-07-29T04:53:11.376Z,4.30
2022-07-29T04:55:39.998Z,4.10
2022-07-29T04:58:10.000Z,4.33
2022-07-29T05:00:39.054Z,4.60
2022-07-29T05:03:07.442Z,4.10
2022-07-29T05:05:35.863Z,4.27
2022-07-29T05:08:04.603Z,5.80
2022-07-29T05:10:36.706Z,4.23
2022-07-29T05:13:05.008Z,3.87
2022-07-29T05:15:33.580Z,4.27
2022-07-29T05:18:02.661Z,4.63
2022-07-29T05:20:31.711Z,3.50
2022-07-29T05:23:01.227Z,4.63
2022-07-29T05:25:43.454Z,3.87
2022-07-29T05:28:48.590Z,4.00
2022-07-29T05:31:17.184Z,4.50
2022-07-29T05:33:45.395Z,4.77
2022-07-29T05:36:13.663Z,4.30
2022-07-29T05:38:41.964Z,4.40
2022-07-29T05:41:10.481Z,5.07
2022-07-29T05:43:38.905Z,6.23
2022-07-29T05:46:08.500Z,4.80
2022-07-29T05:48:37.229Z,4.93
2022-07-29T05:51:05.962Z,4.63
2022-07-29T05:53:34.534Z,4.10
2022-07-29T05:56:06.587Z,5.27
2022-07-29T05:58:41.785Z,5.20
2022-07-29T06:01:11.453Z,5.20
2022-07-29T06:03:40.171Z,4.20
2022-07-29T06:06:08.732Z,5.10
2022-07-29T06:08:37.529Z,5.57
2022-07-29T06:11:06.937Z,5.33
2022-07-29T06:13:35.171Z,4.80
2022-07-29T06:16:03.454Z,4.77
2022-07-29T06:18:33.481Z,5.20
2022-07-29T06:21:02.342Z,5.30
2022-07-29T06:23:30.643Z,5.40
2022-07-29T06:25:58.936Z,3.90
2022-07-29T06:28:27.257Z,5.20
2022-07-29T06:30:55.589Z,5.53
2022-07-29T06:33:23.847Z,4.50
2022-07-29T06:35:55.194Z,5.00
2022-07-29T06:38:30.747Z,4.77
2022-07-29T06:41:04.157Z,4.87
2022-07-29T06:43:50.349Z,6.00
2022-07-29T06:46:20.620Z,5.60
2022-07-29T06:48:49.724Z,5.57
2022-07-29T06:51:22.713Z,5.10
2022-07-29T06:53:58.271Z,5.00
2022-07-29T06:56:31.095Z,4.57
2022-07-29T06:58:59.307Z,5.23
2022-07-29T07:01:29.856Z,4.80
2022-07-29T07:03:58.814Z,5.83
2022-07-29T07:06:28.728Z,5.40
2022-07-29T07:08:57.084Z,4.70
2022-07-29T07:11:25.560Z,4.87
2022-07-29T07:13:53.857Z,5.13
2022-07-29T07:16:22.154Z,5.30
2022-07-29T07:18:50.368Z,5.00
2022-07-29T07:21:18.858Z,4.60
2022-07-29T07:23:49.599Z,5.00
2022-07-29T07:26:17.851Z,5.00
2022-07-29T07:28:46.099Z,3.87
2022-07-29T07:31:15.387Z,3.70
2022-07-29T07:33:44.062Z,3.90
2022-07-29T07:36:12.388Z,3.57
2022-07-29T07:38:40.980Z,4.10
2022-07-29T07:41:10.616Z,3.40
2022-07-29T07:43:39.074Z,3.60
2022-07-29T07:46:07.718Z,3.97
2022-07-29T07:48:37.042Z,3.20
2022-07-29T07:51:05.424Z,4.17
2022-07-29T07:53:33.877Z,4.43
2022-07-29T07:56:12.163Z,4.10
2022-07-29T07:58:42.021Z,4.40
2022-07-29T08:01:11.131Z,4.80
2022-07-29T08:03:40.208Z,4.47
2022-07-29T08:06:08.597Z,4.43
2022-07-29T08:08:37.379Z,4.10
2022-07-29T08:11:09.433Z,4.00
2022-07-29T08:13:39.749Z,3.37
2022-07-29T08:16:16.687Z,3.80
2022-07-29T08:18:46.486Z,4.43
2022-07-29T08:21:15.919Z,4.43
2022-07-29T08:23:59.605Z,4.00
2022-07-29T08:26:30.126Z,3.83
2022-07-29T08:28:58.364Z,4.13
2022-07-29T08:31:28.155Z,3.80
2022-07-29T08:33:57.258Z,4.03
2022-07-29T08:36:25.864Z,3.50
2022-07-29T08:38:54.323Z,2.83
2022-07-29T08:41:23.157Z,3.20
2022-07-29T08:43:52.002Z,3.60
2022-07-29T08:46:21.204Z,3.30
2022-07-29T08:48:51.373Z,3.37
2022-07-29T08:51:21.762Z,4.10
2022-07-29T08:53:51.543Z,3.90
2022-07-29T08:56:21.361Z,5.10
2022-07-29T08:58:51.748Z,2.90
2022-07-29T09:01:35.233Z,4.23
2022-07-29T09:04:12.053Z,3.80
2022-07-29T09:06:44.960Z,3.50
2022-07-29T09:09:14.618Z,3.37
2022-07-29T09:11:43.753Z,3.73
2022-07-29T09:14:14.352Z,3.27
2022-07-29T09:16:53.537Z,3.83
2022-07-29T09:20:13.036Z,3.93
2022-07-29T09:22:43.000Z,3.60
2022-07-29T09:25:13.724Z,4.10
2022-07-29T09:27:42.468Z,4.20
2022-07-29T09:31:05.138Z,3.17
2022-07-29T09:33:35.490Z,3.20
2022-07-29T09:36:07.151Z,3.90
2022-07-29T09:38:37.703Z,3.37
2022-07-29T09:41:08.948Z,3.37
2022-07-29T09:43:37.710Z,4.00
2022-07-29T09:46:13.615Z,3.80
2022-07-29T09:48:42.429Z,3.53
2022-07-29T09:51:22.144Z,3.50
2022-07-29T09:53:54.035Z,4.10
2022-07-29T09:56:22.249Z,3.20
2022-07-29T10:01:53.715Z,3.77
2022-07-29T10:04:22.345Z,4.03
2022-07-29T10:07:04.763Z,3.13
2022-07-29T10:09:35.799Z,4.00
2022-07-29T10:12:11.922Z,3.17
2022-07-29T10:14:40.544Z,3.87
2022-07-29T10:17:10.769Z,3.70
2022-07-29T10:19:40.084Z,3.60
2022-07-29T10:22:10.107Z,3.70
2022-07-29T10:24:40.684Z,3.50
2022-07-29T10:27:10.750Z,3.50
2022-07-29T10:29:39.230Z,3.30
2022-07-29T10:32:34.231Z,3.97
2022-07-29T10:35:22.074Z,4.07
2022-07-29T10:38:25.180Z,3.90
2022-07-29T10:41:23.935Z,4.60
2022-07-29T10:43:54.531Z,4.07
2022-07-29T10:46:23.273Z,4.00
2022-07-29T10:49:15.699Z,4.13
2022-07-29T10:51:56.021Z,3.90
2022-07-29T10:54:42.420Z,4.00
2022-07-29T10:57:18.625Z,2.87
2022-07-29T10:59:52.989Z,3.43
2022-07-29T11:02:45.242Z,3.40
2022-07-29T11:05:15.951Z,3.67
2022-07-29T11:08:27.847Z,3.10
2022-07-29T11:11:37.907Z,3.10
2022-07-29T11:14:10.514Z,3.60
2022-07-29T11:17:03.064Z,2.90
2022-07-29T11:19:34.650Z,3.70
2022-07-29T11:22:05.388Z,4.03
2022-07-29T11:24:35.694Z,3.33
2022-07-29T11:27:18.074Z,3.13
2022-07-29T11:29:58.712Z,3.73
2022-07-29T11:32:39.919Z,3.73
2022-07-29T11:35:19.070Z,2.77
2022-07-29T11:37:52.652Z,2.90
2022-07-29T11:40:24.291Z,2.60
2022-07-29T11:42:53.030Z,2.90
2022-07-29T11:45:43.524Z,3.10
2022-07-29T11:48:31.410Z,3.30
2022-07-29T11:51:02.995Z,3.10
2022-07-29T11:53:32.808Z,3.20
2022-07-29T11:56:02.518Z,3.30
2022-07-29T11:58:32.718Z,3.17
2022-07-29T12:01:04.201Z,3.03
2022-07-29T12:03:36.121Z,3.20
2022-07-29T12:06:14.146Z,3.17
2022-07-29T12:08:45.080Z,3.30
2022-07-29T12:11:22.879Z,2.50
2022-07-29T12:13:52.760Z,3.50
2022-07-29T12:16:28.022Z,2.50
2022-07-29T12:19:02.596Z,3.40
2022-07-29T12:21:45.743Z,2.93
2022-07-29T12:24:22.716Z,3.67
2022-07-29T12:26:57.941Z,3.27
2022-07-29T12:29:33.982Z,3.23
2022-07-29T12:32:14.737Z,2.70
2022-07-29T12:34:47.697Z,3.23
2022-07-29T12:37:16.061Z,2.23
2022-07-29T12:39:44.856Z,2.30
2022-07-29T12:42:15.073Z,2.43
2022-07-29T12:44:48.760Z,2.70
2022-07-29T12:47:20.463Z,3.03
2022-07-29T12:49:50.157Z,2.70
2022-07-29T12:52:29.979Z,2.73
2022-07-29T12:54:58.238Z,3.13
2022-07-29T12:57:27.049Z,3.43
2022-07-29T13:00:10.972Z,2.93
2022-07-29T13:02:42.502Z,2.60
2022-07-29T13:05:13.519Z,3.20
2022-07-29T13:07:54.634Z,2.87
2022-07-29T13:10:25.896Z,2.83
2022-07-29T13:13:05.637Z,2.37
2022-07-29T13:15:34.478Z,2.80
2022-07-29T13:18:04.963Z,2.80
2022-07-29T13:20:33.906Z,2.40
2022-07-29T13:23:03.130Z,2.77
2022-07-29T13:25:34.275Z,2.77
2022-07-29T13:28:03.062Z,2.73
2022-07-29T13:30:31.254Z,2.40
2022-07-29T13:32:59.555Z,2.60
2022-07-29T13:35:30.687Z,2.77
2022-07-29T13:37:59.044Z,2.40
2022-07-29T13:40:27.948Z,2.63
2022-07-29T13:42:56.176Z,3.33
2022-07-29T13:45:24.759Z,3.03
2022-07-29T13:47:57.611Z,3.17
2022-07-29T13:50:25.884Z,2.50
2022-07-29T13:52:55.548Z,2.83
2022-07-29T13:55:23.844Z,2.47
2022-07-29T13:57:52.460Z,2.50
2022-07-29T14:00:20.978Z,2.40
2022-07-29T14:02:49.142Z,2.70
2022-07-29T14:05:17.643Z,2.30
2022-07-29T14:07:45.928Z,2.70
2022-07-29T14:10:19.805Z,2.70
2022-07-29T14:12:48.415Z,2.33
2022-07-29T14:15:16.876Z,2.37
2022-07-29T14:17:45.298Z,2.20
2022-07-29T14:20:13.543Z,2.50
2022-07-29T14:22:42.679Z,2.30
2022-07-29T14:25:15.089Z,2.10
2022-07-29T14:27:45.687Z,2.47
2022-07-29T14:30:14.819Z,2.90
2022-07-29T14:32:43.572Z,2.70
2022-07-29T14:35:11.759Z,2.33
2022-07-29T14:37:41.258Z,2.63
2022-07-29T14:40:10.671Z,2.20
2022-07-29T14:42:39.164Z,2.30
2022-07-29T14:45:11.073Z,3.27
2022-07-29T14:47:40.400Z,2.67
2022-07-29T14:50:09.923Z,1.83
2022-07-29T14:52:38.302Z,2.10
2022-07-29T14:55:16.707Z,1.93
2022-07-29T14:57:48.750Z,1.70
2022-07-29T15:00:20.030Z,2.30
2022-07-29T15:03:03.533Z,1.90
2022-07-29T15:05:32.187Z,1.93
2022-07-29T15:08:01.180Z,1.87
2022-07-29T15:10:29.926Z,2.10
2022-07-29T15:12:58.747Z,2.20
2022-07-29T15:15:28.789Z,1.67
2022-07-29T15:17:57.148Z,2.00
2022-07-29T15:20:28.116Z,2.10
2022-07-29T15:22:57.211Z,2.00
2022-07-29T15:25:26.331Z,2.30
2022-07-29T15:28:00.929Z,2.03
2022-07-29T15:30:33.270Z,1.83
2022-07-29T15:33:03.918Z,2.23
2022-07-29T15:35:32.263Z,2.30
2022-07-29T15:38:00.633Z,11.87
2022-07-29T15:40:29.281Z,2.50
2022-07-29T15:43:01.667Z,2.27
2022-07-29T15:45:32.053Z,2.40
2022-07-29T15:48:01.140Z,1.97
2022-07-29T15:50:29.359Z,3.20
2022-07-29T15:52:57.769Z,2.90
2022-07-29T15:55:26.194Z,2.63
2022-07-29T15:57:58.482Z,2.93
2022-07-29T16:00:30.099Z,2.40
2022-07-29T16:02:58.656Z,2.27
2022-07-29T16:05:29.793Z,2.53
2022-07-29T16:08:00.591Z,2.80
2022-07-29T16:10:28.909Z,2.90
2022-07-29T16:12:57.182Z,2.50
2022-07-29T16:15:25.612Z,2.30
2022-07-29T16:17:55.419Z,2.20
2022-07-29T16:20:24.043Z,2.23
2022-07-29T16:22:52.248Z,2.30
2022-07-29T16:25:20.959Z,2.80
2022-07-29T16:27:49.219Z,2.13
2022-07-29T16:30:17.855Z,2.77
2022-07-29T16:32:46.074Z,2.53
2022-07-29T16:35:15.841Z,2.40
2022-07-29T16:37:44.061Z,2.20
2022-07-29T16:40:12.580Z,2.23
2022-07-29T16:42:46.964Z,1.80
2022-07-29T16:45:16.094Z,1.80
2022-07-29T16:47:44.386Z,2.30
2022-07-29T16:50:12.759Z,2.13
2022-07-29T16:52:42.607Z,2.47
2022-07-29T16:55:11.152Z,1.90
2022-07-29T16:57:39.352Z,1.90
2022-07-29T17:00:09.186Z,2.40
2022-07-29T17:02:38.690Z,1.93
2022-07-29T17:05:08.127Z,1.70
2022-07-29T17:07:36.865Z,1.70
2022-07-29T17:10:08.776Z,1.90
2022-07-29T17:12:37.713Z,1.70
2022-07-29T17:15:07.293Z,1.80
2022-07-29T17:17:38.991Z,1.90
2022-07-29T17:20:09.152Z,1.97
2022-07-29T17:22:37.594Z,1.73
2022-07-29T17:25:08.655Z,2.20
2022-07-29T17:27:37.458Z,1.93
2022-07-29T17:30:07.002Z,2.20
2022-07-29T17:32:38.527Z,2.03
2022-07-29T17:35:28.668Z,1.80
2022-07-29T17:37:57.217Z,2.23
2022-07-29T17:40:26.992Z,2.13
2022-07-29T17:42:55.219Z,1.93
2022-07-29T17:45:23.430Z,2.00
2022-07-29T17:47:51.805Z,2.10
2022-07-29T17:50:20.060Z,1.63
2022-07-29T17:52:48.583Z,1.87
2022-07-29T17:55:16.912Z,2.00
2022-07-29T17:57:46.755Z,1.83
2022-07-29T18:00:17.605Z,2.00
2022-07-29T18:02:46.150Z,2.50
2022-07-29T18:05:14.416Z,1.97
2022-07-29T18:07:42.828Z,1.80
2022-07-29T18:10:11.296Z,1.93
2022-07-29T18:12:39.523Z,2.00
2022-07-29T18:15:10.880Z,2.10
2022-07-29T18:17:56.645Z,2.07
2022-07-29T18:20:26.464Z,1.80
2022-07-29T18:22:54.846Z,2.03
2022-07-29T18:25:23.672Z,1.60
2022-07-29T18:27:51.810Z,1.90
2022-07-29T18:30:21.848Z,1.57
2022-07-29T18:33:18.132Z,2.17
2022-07-29T18:35:38.545Z,1.20
2022-07-29T18:38:07.136Z,2.00
2022-07-29T18:40:35.635Z,1.87
2022-07-29T18:43:03.803Z,1.80
2022-07-29T18:45:33.478Z,2.00
2022-07-29T18:48:01.831Z,1.33
2022-07-29T18:50:31.117Z,1.53
2022-07-29T18:53:02.071Z,1.60
2022-07-29T18:55:30.443Z,1.90
2022-07-29T18:57:58.624Z,2.00
2022-07-29T19:00:27.969Z,1.80
2022-07-29T19:02:57.946Z,2.00
2022-07-29T19:05:26.522Z,1.90
2022-07-29T19:07:56.199Z,1.40
2022-07-29T19:10:24.496Z,2.67
2022-07-29T19:12:52.835Z,2.10
2022-07-29T19:15:21.080Z,1.60
2022-07-29T19:17:49.388Z,1.87
2022-07-29T19:20:19.163Z,1.93
2022-07-29T19:22:47.355Z,1.67
2022-07-29T19:25:15.876Z,1.93
2022-07-29T19:27:44.172Z,1.97
2022-07-29T19:30:12.890Z,2.03
2022-07-29T19:32:41.259Z,2.03
2022-07-29T19:35:27.184Z,1.93
2022-07-29T19:37:58.887Z,1.60
2022-07-29T19:40:27.928Z,1.60
2022-07-29T19:42:56.799Z,2.03
2022-07-29T19:45:26.252Z,1.70
2022-07-29T19:48:00.723Z,1.50
2022-07-29T19:50:29.417Z,1.93
2022-07-29T19:52:59.190Z,1.50
2022-07-29T19:55:27.876Z,1.67
2022-07-29T19:57:56.342Z,1.43
2022-07-29T20:00:25.989Z,1.73
2022-07-29T20:02:54.359Z,1.27
2022-07-29T20:05:28.045Z,1.90
2022-07-29T20:07:58.583Z,1.33
2022-07-29T20:10:27.016Z,1.57
2022-07-29T20:12:55.490Z,1.60
2022-07-29T20:15:24.129Z,1.70
2022-07-29T20:17:56.741Z,1.90
2022-07-29T20:20:26.765Z,1.73
2022-07-29T20:22:55.081Z,1.67
2022-07-29T20:25:25.487Z,1.33
2022-07-29T20:27:54.344Z,1.73
2022-07-29T20:30:23.898Z,2.10
2022-07-29T20:32:52.104Z,1.90
2022-07-29T20:35:22.353Z,1.67
2022-07-29T20:37:55.599Z,1.40
2022-07-29T20:40:26.947Z,1.47
2022-07-29T20:42:55.335Z,1.70
2022-07-29T20:45:24.712Z,1.57
2022-07-29T20:47:53.425Z,2.00
2022-07-29T20:50:24.086Z,1.83
2022-07-29T20:52:53.273Z,1.70
2022-07-29T20:55:22.087Z,1.87
2022-07-29T20:57:52.288Z,1.50
2022-07-29T21:00:20.488Z,1.80
2022-07-29T21:02:48.799Z,1.80
2022-07-29T21:05:17.250Z,1.80
2022-07-29T21:07:45.580Z,1.80
2022-07-29T21:10:14.319Z,1.90
2022-07-29T21:12:43.211Z,1.60
2022-07-29T21:15:15.937Z,1.40
2022-07-29T21:17:47.970Z,2.40
2022-07-29T21:20:17.847Z,1.73
2022-07-29T21:22:46.834Z,1.73
2022-07-29T21:25:15.146Z,2.07
2022-07-29T21:28:01.126Z,1.77
2022-07-29T21:30:30.879Z,1.90
2022-07-29T21:32:59.705Z,2.10
2022-07-29T21:36:02.164Z,2.33
2022-07-29T21:38:18.365Z,2.00
2022-07-29T21:40:47.762Z,1.70
2022-07-29T21:43:16.642Z,1.90
2022-07-29T21:45:47.671Z,1.97
2022-07-29T21:48:15.806Z,2.03
2022-07-29T21:50:44.678Z,2.20
2022-07-29T21:53:15.003Z,1.73
2022-07-29T21:55:44.430Z,1.83
2022-07-29T21:58:15.327Z,1.73
2022-07-29T22:00:46.109Z,1.73
2022-07-29T22:03:14.473Z,1.90
2022-07-29T22:05:42.645Z,1.70
2022-07-29T22:08:10.876Z,2.20
2022-07-29T22:10:39.225Z,2.20
2022-07-29T22:13:07.444Z,2.30
2022-07-29T22:15:35.840Z,1.90
2022-07-29T22:18:06.003Z,1.63
2022-07-29T22:20:34.402Z,2.40
2022-07-29T22:23:03.115Z,1.90
2022-07-29T22:25:31.287Z,2.20
2022-07-29T22:27:59.619Z,2.17
2022-07-29T22:30:28.059Z,2.27
2022-07-29T22:32:56.257Z,2.10
2022-07-29T22:35:26.177Z,1.90
2022-07-29T22:37:54.431Z,2.50
2022-07-29T22:40:22.784Z,1.97
2022-07-29T22:42:59.289Z,2.10
2022-07-29T22:45:27.465Z,1.73
2022-07-29T22:47:59.455Z,2.10
2022-07-29T22:50:29.137Z,2.00
2022-07-29T22:52:57.477Z,1.90
2022-07-29T22:55:25.802Z,1.50
2022-07-29T22:57:54.339Z,1.97
2022-07-29T23:00:22.571Z,1.83
2022-07-29T23:02:51.241Z,1.50
2022-07-29T23:05:19.762Z,1.93
2022-07-29T23:07:49.371Z,1.60
2022-07-29T23:10:17.682Z,1.90
2022-07-29T23:12:45.940Z,1.90
2022-07-29T23:15:14.483Z,2.10
2022-07-29T23:17:42.655Z,2.30
2022-07-29T23:20:11.445Z,2.03
2022-07-29T23:22:43.490Z,1.93
2022-07-29T23:25:13.197Z,1.93
2022-07-29T23:27:41.925Z,2.07
2022-07-29T23:30:11.654Z,1.60
2022-07-29T23:32:40.072Z,1.83
2022-07-29T23:35:09.896Z,2.00
2022-07-29T23:37:39.804Z,2.13
2022-07-29T23:40:13.786Z,2.07
2022-07-29T23:42:44.425Z,2.23
2022-07-29T23:45:14.110Z,2.43
2022-07-29T23:47:42.910Z,2.07
2022-07-29T23:50:13.234Z,2.27
2022-07-29T23:52:41.946Z,1.97
2022-07-29T23:55:36.430Z,2.40
2022-07-29T23:58:00.644Z,2.10
